createdAt,value
2018-10-04T00:04:07.412Z,8.80
2018-10-04T00:09:00.665Z,8.80
2018-10-04T00:13:53.916Z,8.80
2018-10-04T00:18:47.351Z,8.80
2018-10-04T00:23:40.616Z,8.80
2018-10-04T00:28:33.900Z,8.70
2018-10-04T00:33:27.177Z,8.60
2018-10-04T00:38:20.418Z,8.60
2018-10-04T00:43:13.754Z,8.60
2018-10-04T00:48:07.606Z,8.60
2018-10-04T00:53:00.848Z,8.60
2018-10-04T00:57:54.109Z,8.50
2018-10-04T01:02:47.326Z,8.60
2018-10-04T01:07:42.091Z,8.50
2018-10-04T01:12:35.404Z,8.50
2018-10-04T01:17:28.656Z,8.50
2018-10-04T01:22:21.908Z,8.50
2018-10-04T01:27:15.146Z,8.70
2018-10-04T01:32:08.400Z,8.90
2018-10-04T01:37:01.701Z,9.10
2018-10-04T01:41:54.960Z,9.20
2018-10-04T01:46:48.217Z,9.20
2018-10-04T01:51:41.494Z,9.30
2018-10-04T01:56:34.743Z,9.30
2018-10-04T02:01:27.993Z,9.40
2018-10-04T02:06:21.253Z,9.50
2018-10-04T02:11:14.501Z,9.70
2018-10-04T02:16:07.751Z,9.80
2018-10-04T02:21:01.020Z,9.80
2018-10-04T02:25:54.290Z,9.80
2018-10-04T02:30:47.561Z,9.70
2018-10-04T02:35:40.800Z,9.60
2018-10-04T02:40:34.051Z,9.60
2018-10-04T02:45:27.264Z,9.70
2018-10-04T02:50:20.539Z,9.70
2018-10-04T02:55:19.489Z,9.70
2018-10-04T03:00:12.729Z,9.60
2018-10-04T03:05:06.001Z,9.70
2018-10-04T03:09:59.245Z,9.70
2018-10-04T03:14:52.811Z,9.70
2018-10-04T03:19:46.029Z,9.70
2018-10-04T03:24:39.250Z,9.80
2018-10-04T03:29:32.660Z,9.80
2018-10-04T03:34:26.913Z,9.90
2018-10-04T03:39:20.206Z,9.80
2018-10-04T03:44:13.594Z,9.90
2018-10-04T03:49:06.796Z,9.90
2018-10-04T03:54:00.049Z,9.70
2018-10-04T03:58:53.315Z,9.60
2018-10-04T04:03:46.590Z,9.60
2018-10-04T04:08:39.864Z,9.60
2018-10-04T04:13:33.109Z,9.60
2018-10-04T04:18:26.391Z,9.50
2018-10-04T04:23:19.686Z,9.50
2018-10-04T04:28:12.949Z,9.50
2018-10-04T04:33:06.437Z,9.50
2018-10-04T04:37:59.676Z,9.60
2018-10-04T04:42:52.938Z,9.60
2018-10-04T04:47:46.174Z,9.60
2018-10-04T04:52:39.511Z,9.60
2018-10-04T04:57:32.713Z,9.60
2018-10-04T05:02:25.968Z,9.70
2018-10-04T05:07:19.199Z,9.70
2018-10-04T05:12:12.435Z,9.80
2018-10-04T05:17:05.845Z,9.80
2018-10-04T05:21:59.102Z,9.90
2018-10-04T05:26:52.338Z,9.90
2018-10-04T05:31:45.662Z,9.90
2018-10-04T05:36:38.912Z,10.00
2018-10-04T05:41:32.206Z,9.80
2018-10-04T05:46:25.460Z,9.70
2018-10-04T05:51:18.699Z,9.80
2018-10-04T05:56:11.957Z,9.90
2018-10-04T06:01:05.199Z,9.80
2018-10-04T06:05:58.466Z,9.70
2018-10-04T06:10:51.690Z,9.80
2018-10-04T06:15:44.951Z,9.70
2018-10-04T06:20:39.713Z,9.80
2018-10-04T06:25:32.936Z,9.80
2018-10-04T06:30:26.190Z,9.90
2018-10-04T06:35:19.546Z,10.00
2018-10-04T06:40:12.828Z,10.20
2018-10-04T06:45:06.216Z,9.90
2018-10-04T06:49:59.470Z,9.90
2018-10-04T06:54:52.746Z,9.90
2018-10-04T06:59:45.958Z,10.00
2018-10-04T07:04:39.189Z,10.00
2018-10-04T07:09:32.467Z,10.10
2018-10-04T07:14:25.727Z,10.20
2018-10-04T07:19:18.999Z,10.20
2018-10-04T07:24:12.274Z,10.20
2018-10-04T07:29:05.557Z,10.20
2018-10-04T07:33:58.823Z,10.30
2018-10-04T07:38:52.208Z,10.40
2018-10-04T07:43:45.489Z,10.40
2018-10-04T07:48:38.797Z,10.60
2018-10-04T07:53:32.019Z,10.50
2018-10-04T07:58:25.294Z,10.50
2018-10-04T08:03:18.553Z,10.70
2018-10-04T08:08:11.807Z,10.80
2018-10-04T08:13:05.030Z,11.00
2018-10-04T08:17:58.292Z,11.30
2018-10-04T08:22:54.621Z,11.50
2018-10-04T08:27:47.873Z,11.60
2018-10-04T08:32:41.561Z,11.70
2018-10-04T08:37:34.856Z,11.50
2018-10-04T08:42:28.170Z,11.40
2018-10-04T08:47:21.449Z,11.40
2018-10-04T08:52:20.276Z,11.50
2018-10-04T08:57:13.509Z,11.60
2018-10-04T09:02:06.805Z,11.60
2018-10-04T09:07:00.170Z,11.70
2018-10-04T09:11:53.560Z,11.90
2018-10-04T09:16:46.816Z,12.10
2018-10-04T09:21:40.033Z,12.30
2018-10-04T09:26:33.278Z,12.30
2018-10-04T09:31:31.666Z,12.40
2018-10-04T09:36:25.218Z,12.70
2018-10-04T09:41:25.295Z,12.60
2018-10-04T09:46:18.593Z,10.70
2018-10-04T09:51:17.418Z,12.90
2018-10-04T09:56:16.179Z,13.20
2018-10-04T10:01:15.110Z,13.20
2018-10-04T10:06:08.368Z,13.20
2018-10-04T10:11:01.721Z,13.50
2018-10-04T10:15:54.900Z,13.50
2018-10-04T10:20:48.142Z,13.50
2018-10-04T10:25:41.365Z,13.60
2018-10-04T10:30:34.623Z,13.80
2018-10-04T10:35:27.863Z,14.10
2018-10-04T10:40:21.284Z,14.50
2018-10-04T10:45:14.376Z,14.70
2018-10-04T10:50:07.652Z,14.60
2018-10-04T10:55:00.911Z,14.60
2018-10-04T10:59:54.209Z,14.80
2018-10-04T11:04:47.743Z,14.90
2018-10-04T11:09:40.967Z,14.80
2018-10-04T11:14:34.221Z,15.00
2018-10-04T11:19:27.546Z,15.20
2018-10-04T11:24:20.868Z,15.20
2018-10-04T11:29:14.200Z,15.30
2018-10-04T11:34:08.518Z,15.50
2018-10-04T11:39:01.871Z,15.80
2018-10-04T11:43:58.179Z,15.80
2018-10-04T11:48:51.788Z,16.10
2018-10-04T11:53:45.634Z,16.10
2018-10-04T11:58:38.853Z,15.90
2018-10-04T12:03:32.153Z,15.90
2018-10-04T12:08:25.397Z,16.10
2018-10-04T12:13:18.647Z,16.50
2018-10-04T12:18:11.932Z,16.80
2018-10-04T12:23:05.178Z,16.80
2018-10-04T12:27:58.455Z,16.80
2018-10-04T12:32:51.936Z,17.00
2018-10-04T12:37:45.174Z,16.80
2018-10-04T12:42:38.536Z,17.00
2018-10-04T12:47:31.794Z,17.40
2018-10-04T12:52:25.214Z,17.50
2018-10-04T12:57:22.327Z,17.50
2018-10-04T13:02:15.714Z,17.30
2018-10-04T13:07:09.385Z,17.60
2018-10-04T13:12:02.399Z,17.80
2018-10-04T13:16:55.684Z,17.90
2018-10-04T13:21:49.110Z,18.10
2018-10-04T13:26:42.643Z,18.10
2018-10-04T13:31:35.931Z,18.60
2018-10-04T13:36:29.153Z,18.50
2018-10-04T13:41:23.347Z,18.20
2018-10-04T13:46:16.628Z,18.00
2018-10-04T13:51:09.906Z,18.40
2018-10-04T13:56:04.237Z,18.30
2018-10-04T14:00:57.514Z,18.20
2018-10-04T14:05:51.032Z,18.20
2018-10-04T14:10:44.257Z,18.30
2018-10-04T14:15:37.561Z,18.20
2018-10-04T14:20:30.820Z,17.90
2018-10-04T14:25:24.275Z,17.80
2018-10-04T14:30:17.486Z,17.60
2018-10-04T14:35:10.732Z,17.90
2018-10-04T14:40:04.104Z,18.00
2018-10-04T14:44:58.112Z,17.40
2018-10-04T14:49:51.505Z,17.50
2018-10-04T14:54:46.413Z,17.70
2018-10-04T14:59:39.805Z,17.90
2018-10-04T15:04:33.339Z,17.60
2018-10-04T15:09:26.606Z,17.90
2018-10-04T15:14:20.447Z,18.00
2018-10-04T15:19:13.713Z,17.40
2018-10-04T15:24:07.024Z,17.30
2018-10-04T15:29:00.231Z,17.40
2018-10-04T15:33:53.454Z,17.40
2018-10-04T15:38:46.704Z,17.40
2018-10-04T15:43:40.037Z,17.30
2018-10-04T15:48:33.243Z,17.00
2018-10-04T15:53:26.816Z,16.90
2018-10-04T15:58:20.061Z,16.80
2018-10-04T16:03:13.326Z,16.80
2018-10-04T16:08:06.812Z,16.60
2018-10-04T16:13:00.155Z,16.50
2018-10-04T16:17:53.382Z,16.40
2018-10-04T16:22:46.629Z,16.30
2018-10-04T16:27:45.977Z,16.30
2018-10-04T16:32:39.237Z,16.20
2018-10-04T16:37:32.542Z,16.10
2018-10-04T16:42:25.779Z,16.00
2018-10-04T16:47:19.047Z,15.90
2018-10-04T16:52:12.307Z,15.80
2018-10-04T16:57:05.846Z,15.60
2018-10-04T17:01:59.051Z,15.50
2018-10-04T17:06:52.334Z,15.40
2018-10-04T17:11:45.662Z,15.20
2018-10-04T17:16:39.035Z,15.10
2018-10-04T17:21:32.263Z,15.00
2018-10-04T17:26:26.535Z,14.90
2018-10-04T17:31:19.817Z,14.70
2018-10-04T17:36:13.412Z,14.40
2018-10-04T17:41:06.811Z,14.30
2018-10-04T17:46:00.122Z,14.30
2018-10-04T17:50:53.400Z,14.20
2018-10-04T17:55:46.664Z,14.00
2018-10-04T18:00:40.294Z,13.90
2018-10-04T18:05:33.536Z,13.80
2018-10-04T18:10:26.787Z,13.70
2018-10-04T18:15:20.073Z,13.60
2018-10-04T18:20:13.309Z,13.40
2018-10-04T18:25:06.896Z,13.40
2018-10-04T18:30:00.175Z,13.40
2018-10-04T18:34:54.155Z,13.30
2018-10-04T18:39:47.408Z,13.40
2018-10-04T18:44:40.732Z,13.40
2018-10-04T18:49:33.996Z,13.20
2018-10-04T18:54:27.257Z,13.10
2018-10-04T18:59:20.539Z,13.10
2018-10-04T19:04:13.807Z,13.00
2018-10-04T19:09:09.513Z,13.00
2018-10-04T19:14:03.569Z,13.00
2018-10-04T19:18:56.857Z,12.90
2018-10-04T19:23:50.104Z,12.90
2018-10-04T19:33:42.692Z,12.90
2018-10-04T19:38:36.303Z,12.80
2018-10-04T19:43:29.572Z,12.60
2018-10-04T19:48:22.928Z,12.40
2018-10-04T19:53:16.217Z,12.40
2018-10-04T19:58:09.528Z,12.40
2018-10-04T20:03:02.932Z,12.30
2018-10-04T20:07:56.196Z,12.20
2018-10-04T20:12:49.517Z,12.10
2018-10-04T20:17:42.831Z,12.20
2018-10-04T20:22:36.990Z,12.20
2018-10-04T20:27:30.297Z,12.10
2018-10-04T20:32:23.609Z,12.00
2018-10-04T20:37:17.001Z,11.90
2018-10-04T20:42:10.466Z,11.80
2018-10-04T20:47:05.519Z,11.80
2018-10-04T20:51:59.003Z,11.70
2018-10-04T20:56:53.110Z,11.70
2018-10-04T21:01:49.463Z,11.70
2018-10-04T21:06:42.899Z,11.70
2018-10-04T21:11:36.504Z,11.50
2018-10-04T21:16:29.747Z,11.50
2018-10-04T21:21:22.955Z,11.40
2018-10-04T21:26:16.184Z,11.40
2018-10-04T21:31:09.425Z,11.40
2018-10-04T21:36:02.708Z,11.30
2018-10-04T21:40:55.984Z,11.20
2018-10-04T21:45:49.265Z,11.10
2018-10-04T21:50:42.712Z,11.10
2018-10-04T21:55:35.959Z,11.00
2018-10-04T22:00:29.582Z,11.00
2018-10-04T22:05:22.820Z,11.00
2018-10-04T22:10:16.085Z,11.00
2018-10-04T22:15:09.353Z,10.90
2018-10-04T22:20:02.615Z,10.90
2018-10-04T22:24:56.586Z,10.80
2018-10-04T22:29:49.840Z,10.80
2018-10-04T22:34:43.108Z,10.70
2018-10-04T22:39:36.929Z,10.70
2018-10-04T22:44:30.170Z,10.60
2018-10-04T22:49:23.406Z,10.70
2018-10-04T22:54:17.460Z,10.70
2018-10-04T22:59:10.727Z,10.80
2018-10-04T23:04:04.599Z,10.80
2018-10-04T23:08:57.949Z,10.60
2018-10-04T23:13:51.165Z,10.60
2018-10-04T23:18:44.440Z,10.50
2018-10-04T23:23:37.708Z,10.40
2018-10-04T23:28:30.987Z,10.40
2018-10-04T23:33:24.221Z,10.30
2018-10-04T23:38:17.513Z,10.20
2018-10-04T23:43:10.749Z,10.10
2018-10-04T23:48:04.047Z,10.10
2018-10-04T23:52:57.285Z,10.10
2018-10-04T23:57:50.569Z,10.10
